createdAt,value
2018-11-07T00:00:02.391Z,2.40
2018-11-07T00:02:33.045Z,2.30
2018-11-07T00:05:03.527Z,3.57
2018-11-07T00:07:34.124Z,2.30
2018-11-07T00:10:19.342Z,2.20
2018-11-07T00:12:49.829Z,2.60
2018-11-07T00:15:20.369Z,2.97
2018-11-07T00:17:50.937Z,2.47
2018-11-07T00:20:21.446Z,2.50
2018-11-07T00:22:52.272Z,2.27
2018-11-07T00:25:22.637Z,2.40
2018-11-07T00:27:53.048Z,2.30
2018-11-07T00:30:23.462Z,2.47
2018-11-07T00:32:53.929Z,2.23
2018-11-07T00:35:24.436Z,2.20
2018-11-07T00:37:54.903Z,2.83
2018-11-07T00:40:25.429Z,2.37
2018-11-07T00:42:55.900Z,2.40
2018-11-07T00:45:26.346Z,2.47
2018-11-07T00:47:56.702Z,2.47
2018-11-07T00:50:27.228Z,3.07
2018-11-07T00:52:57.669Z,2.73
2018-11-07T00:55:28.131Z,2.20
2018-11-07T00:57:58.545Z,2.37
2018-11-07T01:00:29.039Z,3.10
2018-11-07T01:02:59.460Z,2.60
2018-11-07T01:05:29.984Z,2.73
2018-11-07T01:08:00.491Z,2.73
2018-11-07T01:10:30.884Z,2.93
2018-11-07T01:13:01.290Z,3.00
2018-11-07T01:15:32.593Z,2.83
2018-11-07T01:18:02.906Z,3.20
2018-11-07T01:20:34.335Z,3.63
2018-11-07T01:23:05.013Z,2.90
2018-11-07T01:25:35.438Z,3.50
2018-11-07T01:28:05.896Z,2.73
2018-11-07T01:30:36.315Z,3.10
2018-11-07T01:33:07.172Z,3.70
2018-11-07T01:35:37.572Z,3.27
2018-11-07T01:38:08.143Z,3.53
2018-11-07T01:40:38.609Z,3.30
2018-11-07T01:43:09.276Z,3.87
2018-11-07T01:45:39.788Z,3.20
2018-11-07T01:48:10.282Z,3.20
2018-11-07T01:50:40.795Z,3.80
2018-11-07T01:53:11.153Z,3.23
2018-11-07T01:55:41.612Z,3.43
2018-11-07T01:58:12.006Z,3.90
2018-11-07T02:00:42.442Z,3.50
2018-11-07T02:03:13.109Z,3.30
2018-11-07T02:05:44.440Z,3.70
2018-11-07T02:08:14.948Z,3.37
2018-11-07T02:10:45.414Z,3.47
2018-11-07T02:13:15.792Z,3.80
2018-11-07T02:15:46.288Z,4.07
2018-11-07T02:18:16.705Z,3.00
2018-11-07T02:20:47.180Z,4.03
2018-11-07T02:23:18.126Z,3.23
2018-11-07T02:25:48.791Z,3.93
2018-11-07T02:28:19.317Z,3.57
2018-11-07T02:30:49.762Z,3.70
2018-11-07T02:33:20.281Z,3.37
2018-11-07T02:35:50.832Z,3.60
2018-11-07T02:38:21.180Z,3.23
2018-11-07T02:40:51.744Z,3.80
2018-11-07T02:43:22.434Z,3.40
2018-11-07T02:45:53.936Z,3.00
2018-11-07T02:48:24.385Z,3.87
2018-11-07T02:50:54.824Z,3.50
2018-11-07T02:53:25.383Z,3.70
2018-11-07T02:55:55.765Z,3.30
2018-11-07T02:58:26.227Z,3.47
2018-11-07T03:00:56.657Z,3.50
2018-11-07T03:03:27.333Z,3.80
2018-11-07T03:05:57.893Z,3.43
2018-11-07T03:08:31.748Z,3.80
2018-11-07T03:11:03.731Z,3.37
2018-11-07T03:13:34.409Z,3.13
2018-11-07T03:16:04.868Z,3.90
2018-11-07T03:18:35.362Z,3.37
2018-11-07T03:21:05.911Z,3.47
2018-11-07T03:23:36.448Z,3.20
2018-11-07T03:26:07.018Z,3.27
2018-11-07T03:28:37.468Z,3.60
2018-11-07T03:31:07.980Z,3.37
2018-11-07T03:33:38.470Z,3.87
2018-11-07T03:36:08.895Z,3.07
2018-11-07T03:38:39.370Z,3.40
2018-11-07T03:41:09.865Z,3.80
2018-11-07T03:43:40.456Z,3.17
2018-11-07T03:46:11.043Z,3.33
2018-11-07T03:48:41.610Z,3.50
2018-11-07T03:51:12.041Z,2.80
2018-11-07T03:53:42.393Z,3.23
2018-11-07T03:56:12.896Z,3.23
2018-11-07T03:58:43.330Z,3.43
2018-11-07T04:01:13.769Z,3.50
2018-11-07T04:03:44.248Z,3.90
2018-11-07T04:06:14.577Z,3.33
2018-11-07T04:08:45.039Z,3.40
2018-11-07T04:11:15.495Z,4.30
2018-11-07T04:13:46.019Z,3.43
2018-11-07T04:16:16.440Z,3.80
2018-11-07T04:18:46.897Z,3.40
2018-11-07T04:21:17.429Z,4.50
2018-11-07T04:23:52.023Z,4.10
2018-11-07T04:26:22.480Z,4.10
2018-11-07T04:28:52.902Z,3.30
2018-11-07T04:31:23.559Z,3.63
2018-11-07T04:33:53.982Z,3.17
2018-11-07T04:36:24.829Z,3.60
2018-11-07T04:38:55.924Z,3.57
2018-11-07T04:41:26.365Z,3.97
2018-11-07T04:43:56.995Z,3.23
2018-11-07T04:46:27.518Z,3.80
2018-11-07T04:48:57.948Z,3.30
2018-11-07T04:51:28.331Z,4.23
2018-11-07T04:53:58.806Z,3.60
2018-11-07T04:56:29.304Z,3.37
2018-11-07T04:58:59.756Z,4.07
2018-11-07T05:01:30.166Z,3.70
2018-11-07T05:04:00.661Z,4.53
2018-11-07T05:06:31.076Z,4.17
2018-11-07T05:09:01.449Z,4.50
2018-11-07T05:11:31.958Z,4.77
2018-11-07T05:14:02.405Z,4.77
2018-11-07T05:16:32.877Z,5.07
2018-11-07T05:19:03.361Z,3.97
2018-11-07T05:21:33.812Z,4.17
2018-11-07T05:24:04.500Z,4.10
2018-11-07T05:26:34.933Z,4.17
2018-11-07T05:29:05.463Z,4.17
2018-11-07T05:31:36.006Z,4.33
2018-11-07T05:34:06.475Z,3.97
2018-11-07T05:36:36.936Z,3.87
2018-11-07T05:39:09.431Z,4.50
2018-11-07T05:41:39.868Z,4.63
2018-11-07T05:44:10.603Z,4.07
2018-11-07T05:46:41.132Z,4.07
2018-11-07T05:49:11.665Z,3.80
2018-11-07T05:51:42.029Z,4.67
2018-11-07T05:54:12.540Z,4.23
2018-11-07T05:56:42.918Z,4.30
2018-11-07T05:59:13.349Z,4.40
2018-11-07T06:01:43.825Z,3.70
2018-11-07T06:04:16.057Z,5.07
2018-11-07T06:06:46.588Z,4.10
2018-11-07T06:09:16.981Z,3.87
2018-11-07T06:11:48.269Z,4.33
2018-11-07T06:14:18.763Z,3.73
2018-11-07T06:16:49.218Z,3.87
2018-11-07T06:19:19.739Z,3.50
2018-11-07T06:21:50.114Z,4.10
2018-11-07T06:24:20.926Z,4.27
2018-11-07T06:26:51.386Z,3.77
2018-11-07T06:29:21.998Z,3.97
2018-11-07T06:31:52.416Z,3.60
2018-11-07T06:34:22.923Z,3.60
2018-11-07T06:36:53.358Z,3.77
2018-11-07T06:39:23.817Z,3.97
2018-11-07T06:41:54.255Z,3.60
2018-11-07T06:44:24.848Z,3.07
2018-11-07T06:46:55.300Z,3.93
2018-11-07T06:49:25.737Z,3.80
2018-11-07T06:51:56.158Z,4.07
2018-11-07T06:54:26.644Z,3.60
2018-11-07T06:56:57.120Z,4.37
2018-11-07T06:59:27.570Z,3.53
2018-11-07T07:01:58.061Z,3.83
2018-11-07T07:04:28.692Z,4.13
2018-11-07T07:06:59.214Z,3.53
2018-11-07T07:09:29.630Z,3.57
2018-11-07T07:12:00.096Z,3.43
2018-11-07T07:14:30.558Z,4.10
2018-11-07T07:17:01.009Z,4.30
2018-11-07T07:19:31.633Z,4.27
2018-11-07T07:22:02.189Z,4.23
2018-11-07T07:24:32.963Z,4.30
2018-11-07T07:27:03.316Z,3.63
2018-11-07T07:29:33.776Z,3.70
2018-11-07T07:32:04.292Z,4.17
2018-11-07T07:34:34.822Z,3.63
2018-11-07T07:37:05.431Z,4.93
2018-11-07T07:39:35.827Z,3.97
2018-11-07T07:42:06.366Z,3.77
2018-11-07T07:44:36.876Z,3.43
2018-11-07T07:47:07.606Z,3.40
2018-11-07T07:49:38.147Z,3.53
2018-11-07T07:52:08.708Z,4.20
2018-11-07T07:54:39.234Z,3.93
2018-11-07T07:57:09.687Z,4.00
2018-11-07T07:59:40.103Z,3.80
2018-11-07T08:02:10.569Z,4.20
2018-11-07T08:04:41.031Z,3.73
2018-11-07T08:07:11.540Z,3.37
2018-11-07T08:09:41.986Z,4.30
2018-11-07T08:12:12.458Z,4.20
2018-11-07T08:14:42.856Z,4.63
2018-11-07T08:17:13.307Z,3.83
2018-11-07T08:19:43.767Z,3.10
2018-11-07T08:22:14.237Z,3.43
2018-11-07T08:24:44.997Z,4.10
2018-11-07T08:27:15.506Z,4.50
2018-11-07T08:29:45.953Z,3.33
2018-11-07T08:32:16.472Z,3.20
2018-11-07T08:34:46.979Z,3.30
2018-11-07T08:37:17.497Z,3.53
2018-11-07T08:39:48.053Z,4.13
2018-11-07T08:42:18.651Z,3.80
2018-11-07T08:44:49.273Z,3.92
2018-11-07T08:47:19.741Z,4.13
2018-11-07T08:49:50.253Z,3.90
2018-11-07T08:52:20.694Z,3.87
2018-11-07T08:54:51.274Z,3.77
2018-11-07T08:57:21.682Z,2.87
2018-11-07T08:59:52.123Z,3.53
2018-11-07T09:02:22.575Z,3.43
2018-11-07T09:04:53.174Z,3.27
2018-11-07T09:07:23.692Z,3.27
2018-11-07T09:09:54.273Z,3.23
2018-11-07T09:12:24.770Z,3.17
2018-11-07T09:14:56.384Z,3.53
2018-11-07T09:17:26.921Z,3.40
2018-11-07T09:19:57.405Z,3.63
2018-11-07T09:22:28.921Z,4.30
2018-11-07T09:24:59.561Z,3.20
2018-11-07T09:27:30.859Z,3.43
2018-11-07T09:30:01.300Z,3.80
2018-11-07T09:32:31.733Z,3.60
2018-11-07T09:35:02.220Z,3.30
2018-11-07T09:37:32.653Z,3.33
2018-11-07T09:40:03.150Z,2.90
2018-11-07T09:42:33.605Z,2.77
2018-11-07T09:45:04.183Z,3.00
2018-11-07T09:47:34.693Z,3.27
2018-11-07T09:50:05.608Z,2.80
2018-11-07T09:52:36.332Z,2.70
2018-11-07T09:55:08.077Z,2.60
2018-11-07T09:57:38.809Z,3.17
2018-11-07T10:00:12.653Z,3.03
2018-11-07T10:02:43.584Z,3.27
2018-11-07T10:05:15.784Z,2.70
2018-11-07T10:07:46.335Z,3.13
2018-11-07T10:10:18.159Z,2.90
2018-11-07T10:12:48.736Z,2.73
2018-11-07T10:15:19.450Z,2.63
2018-11-07T10:17:49.882Z,3.10
2018-11-07T10:20:22.607Z,2.90
2018-11-07T10:22:53.164Z,2.70
2018-11-07T10:32:22.342Z,3.23
2018-11-07T10:34:52.757Z,2.90
2018-11-07T10:37:32.257Z,3.40
2018-11-07T10:39:53.898Z,2.97
2018-11-07T10:42:24.314Z,3.80
2018-11-07T10:44:54.811Z,4.03
2018-11-07T10:47:25.348Z,3.23
2018-11-07T10:49:55.951Z,2.97
2018-11-07T10:52:26.405Z,3.97
2018-11-07T10:54:56.845Z,3.60
2018-11-07T10:57:27.329Z,2.97
2018-11-07T10:59:57.840Z,3.13
2018-11-07T11:02:33.165Z,3.30
2018-11-07T11:05:03.744Z,3.37
2018-11-07T11:07:34.204Z,3.57
2018-11-07T11:10:04.821Z,3.10
2018-11-07T11:12:35.325Z,3.17
2018-11-07T11:15:06.649Z,3.63
2018-11-07T11:17:37.249Z,3.20
2018-11-07T11:20:09.995Z,3.20
2018-11-07T11:22:40.442Z,2.80
2018-11-07T11:25:11.234Z,3.10
2018-11-07T11:27:42.098Z,2.70
2018-11-07T11:30:12.857Z,3.13
2018-11-07T11:32:43.373Z,2.80
2018-11-07T11:35:14.063Z,2.57
2018-11-07T11:37:44.454Z,2.70
2018-11-07T11:40:15.909Z,2.47
2018-11-07T11:42:46.662Z,3.20
2018-11-07T11:45:17.841Z,3.23
2018-11-07T11:47:48.409Z,2.83
2018-11-07T11:50:20.166Z,2.73
2018-11-07T11:52:50.927Z,2.47
2018-11-07T11:55:21.459Z,2.43
2018-11-07T11:57:52.542Z,2.90
2018-11-07T12:00:23.133Z,2.47
2018-11-07T12:02:53.605Z,2.07
2018-11-07T12:05:24.153Z,2.23
2018-11-07T12:07:54.707Z,2.10
2018-11-07T12:10:26.667Z,2.27
2018-11-07T12:12:58.207Z,2.60
2018-11-07T12:15:29.192Z,1.77
2018-11-07T12:17:59.695Z,1.73
2018-11-07T12:20:30.141Z,1.60
2018-11-07T12:23:00.706Z,1.93
2018-11-07T12:25:31.149Z,2.53
2018-11-07T12:28:01.700Z,2.90
2018-11-07T12:30:32.381Z,1.80
2018-11-07T12:33:02.822Z,1.87
2018-11-07T12:35:33.178Z,1.60
2018-11-07T12:38:03.704Z,2.00
2018-11-07T12:40:34.091Z,2.10
2018-11-07T12:43:04.665Z,1.63
2018-11-07T12:45:35.111Z,1.60
2018-11-07T12:48:05.649Z,2.03
2018-11-07T12:50:36.327Z,1.97
2018-11-07T12:53:06.940Z,2.00
2018-11-07T12:55:37.491Z,4.33
2018-11-07T12:58:08.125Z,2.77
2018-11-07T13:00:38.454Z,2.30
2018-11-07T13:03:08.977Z,3.17
2018-11-07T13:05:39.455Z,1.57
2018-11-07T13:08:10.119Z,1.90
2018-11-07T13:10:40.894Z,2.53
2018-11-07T13:13:12.352Z,2.57
2018-11-07T13:15:42.860Z,2.30
2018-11-07T13:18:13.313Z,2.30
2018-11-07T13:20:43.794Z,2.93
2018-11-07T13:23:14.295Z,2.43
2018-11-07T13:25:44.780Z,2.30
2018-11-07T13:28:15.244Z,2.50
2018-11-07T13:30:45.944Z,2.37
2018-11-07T13:33:16.504Z,1.50
2018-11-07T13:35:46.896Z,2.27
2018-11-07T13:38:17.769Z,2.20
2018-11-07T13:40:48.120Z,2.13
2018-11-07T13:43:18.566Z,2.70
2018-11-07T13:45:49.141Z,2.90
2018-11-07T13:48:19.561Z,2.53
2018-11-07T13:50:50.208Z,2.17
2018-11-07T13:53:20.701Z,2.10
2018-11-07T13:55:51.198Z,2.57
2018-11-07T13:58:21.708Z,1.60
2018-11-07T14:00:52.061Z,2.20
2018-11-07T14:03:22.563Z,2.67
2018-11-07T14:05:53.120Z,3.00
2018-11-07T14:08:23.543Z,2.13
2018-11-07T14:10:54.098Z,2.30
2018-11-07T14:13:24.547Z,2.40
2018-11-07T14:15:55.143Z,2.50
2018-11-07T14:18:25.887Z,2.27
2018-11-07T14:20:56.352Z,2.30
2018-11-07T14:23:26.792Z,5.43
2018-11-07T14:25:57.264Z,5.60
2018-11-07T14:28:27.879Z,6.90
2018-11-07T14:30:58.334Z,5.83
2018-11-07T14:33:28.889Z,5.77
2018-11-07T14:35:59.409Z,5.17
2018-11-07T14:38:29.890Z,3.67
2018-11-07T14:41:00.364Z,3.20
2018-11-07T14:43:30.701Z,3.50
2018-11-07T14:46:01.304Z,3.33
2018-11-07T14:48:31.774Z,2.67
2018-11-07T14:51:02.351Z,3.20
2018-11-07T14:53:32.913Z,2.77
2018-11-07T14:56:03.320Z,5.73
2018-11-07T14:58:33.730Z,2.77
2018-11-07T15:01:04.230Z,5.30
2018-11-07T15:03:34.660Z,2.97
2018-11-07T15:06:05.229Z,2.57
2018-11-07T15:08:35.660Z,2.20
2018-11-07T15:11:06.351Z,3.03
2018-11-07T15:13:36.791Z,1.77
2018-11-07T15:16:07.265Z,2.67
2018-11-07T15:18:37.670Z,2.40
2018-11-07T15:21:08.050Z,2.33
2018-11-07T15:23:38.452Z,2.03
2018-11-07T15:26:08.845Z,2.47
2018-11-07T15:28:39.277Z,2.90
2018-11-07T15:31:09.668Z,3.30
2018-11-07T15:33:40.125Z,3.13
2018-11-07T15:36:10.648Z,2.90
2018-11-07T15:38:41.175Z,2.70
2018-11-07T15:41:11.713Z,2.90
2018-11-07T15:43:42.205Z,4.00
2018-11-07T15:46:12.652Z,2.97
2018-11-07T15:48:43.133Z,2.70
2018-11-07T15:51:14.812Z,2.40
2018-11-07T15:53:45.355Z,2.70
2018-11-07T15:56:15.836Z,2.37
2018-11-07T15:58:46.288Z,2.20
2018-11-07T16:01:16.669Z,2.50
2018-11-07T16:03:51.121Z,4.43
2018-11-07T16:06:21.726Z,8.60
2018-11-07T16:08:52.561Z,3.97
2018-11-07T16:11:23.169Z,8.27
2018-11-07T16:13:53.687Z,4.07
2018-11-07T16:16:24.160Z,7.80
2018-11-07T16:18:54.735Z,19.37
2018-11-07T16:21:25.246Z,30.53
2018-11-07T16:23:56.213Z,38.50
2018-11-07T16:26:26.694Z,32.53
2018-11-07T16:28:57.289Z,64.27
2018-11-07T16:31:28.051Z,78.30
2018-11-07T16:33:58.461Z,32.20
2018-11-07T16:36:29.085Z,98.33
2018-11-07T16:38:59.542Z,118.63
2018-11-07T16:41:30.262Z,61.57
2018-11-07T16:49:02.496Z,40.33
2018-11-07T16:51:33.163Z,18.50
2018-11-07T16:54:03.837Z,6.10
2018-11-07T16:56:34.496Z,13.77
2018-11-07T16:59:05.125Z,4.13
2018-11-07T17:01:35.708Z,3.23
2018-11-07T17:04:06.577Z,2.80
2018-11-07T17:06:37.420Z,23.63
2018-11-07T17:09:09.822Z,24.67
2018-11-07T17:11:40.845Z,10.23
2018-11-07T17:14:11.357Z,3.50
2018-11-07T17:16:41.815Z,3.17
2018-11-07T17:19:12.349Z,8.70
2018-11-07T17:21:42.905Z,4.33
2018-11-07T17:24:13.660Z,3.50
2018-11-07T17:26:44.262Z,3.30
2018-11-07T17:29:14.766Z,3.87
2018-11-07T17:31:45.376Z,3.20
2018-11-07T17:34:15.775Z,3.63
2018-11-07T17:36:46.390Z,2.80
2018-11-07T17:39:16.879Z,3.67
2018-11-07T17:43:11.650Z,4.10
2018-11-07T17:47:06.376Z,4.13
2018-11-07T17:49:36.802Z,4.80
2018-11-07T17:52:07.274Z,3.37
2018-11-07T17:54:37.878Z,3.23
2018-11-07T17:57:08.505Z,3.63
2018-11-07T17:59:39.035Z,4.77
2018-11-07T18:02:09.552Z,6.00
2018-11-07T18:04:39.998Z,4.90
2018-11-07T18:07:10.488Z,4.63
2018-11-07T18:09:41.104Z,4.03
2018-11-07T18:12:11.673Z,3.70
2018-11-07T18:14:42.309Z,3.17
2018-11-07T18:17:12.833Z,2.80
2018-11-07T18:19:43.313Z,5.33
2018-11-07T18:22:13.920Z,4.50
2018-11-07T18:24:44.403Z,4.67
2018-11-07T18:27:15.156Z,4.80
2018-11-07T18:29:45.684Z,6.37
2018-11-07T18:32:16.278Z,7.17
2018-11-07T18:34:46.803Z,5.93
2018-11-07T18:37:17.312Z,4.30
2018-11-07T18:39:47.752Z,3.03
2018-11-07T18:42:18.196Z,4.40
2018-11-07T18:44:48.741Z,3.90
2018-11-07T18:47:19.480Z,3.77
2018-11-07T18:49:50.045Z,3.43
2018-11-07T18:52:20.533Z,3.03
2018-11-07T18:54:51.067Z,2.83
2018-11-07T18:57:21.614Z,3.47
2018-11-07T18:59:52.120Z,3.50
2018-11-07T19:02:22.727Z,3.00
2018-11-07T19:04:53.499Z,3.30
2018-11-07T19:07:24.225Z,3.20
2018-11-07T19:09:54.775Z,2.77
2018-11-07T19:12:25.330Z,2.97
2018-11-07T19:14:55.843Z,2.80
2018-11-07T19:17:26.400Z,2.33
2018-11-07T19:19:57.081Z,2.70
2018-11-07T19:22:27.656Z,3.43
2018-11-07T19:24:58.257Z,3.30
2018-11-07T19:27:28.910Z,2.63
2018-11-07T19:29:59.497Z,3.37
2018-11-07T19:32:30.257Z,4.13
2018-11-07T19:35:00.815Z,3.03
2018-11-07T19:37:31.341Z,2.93
2018-11-07T19:40:01.993Z,2.77
2018-11-07T19:42:32.575Z,2.90
2018-11-07T19:45:03.168Z,2.70
2018-11-07T19:47:33.864Z,2.70
2018-11-07T19:50:05.360Z,2.30
2018-11-07T19:52:36.081Z,2.53
2018-11-07T19:55:07.960Z,2.30
2018-11-07T19:57:38.535Z,2.57
2018-11-07T20:00:12.242Z,2.53
2018-11-07T20:02:43.378Z,3.87
2018-11-07T20:05:14.008Z,2.50
2018-11-07T20:07:44.808Z,2.40
2018-11-07T20:10:17.715Z,2.57
2018-11-07T20:12:48.239Z,2.63
2018-11-07T20:15:19.706Z,2.70
2018-11-07T20:17:50.324Z,2.53
2018-11-07T20:20:20.759Z,3.17
2018-11-07T20:22:51.456Z,2.73
2018-11-07T20:25:21.920Z,2.63
2018-11-07T20:27:53.823Z,2.80
2018-11-07T20:30:24.493Z,2.70
2018-11-07T20:32:55.149Z,2.83
2018-11-07T20:35:25.815Z,2.60
2018-11-07T20:37:56.299Z,2.53
2018-11-07T20:40:26.764Z,2.63
2018-11-07T20:42:57.223Z,2.80
2018-11-07T20:45:27.600Z,2.53
2018-11-07T20:47:58.110Z,2.53
2018-11-07T20:50:28.574Z,2.70
2018-11-07T20:52:59.049Z,2.17
2018-11-07T20:55:29.500Z,2.30
2018-11-07T20:58:00.106Z,2.80
2018-11-07T21:00:30.672Z,2.37
2018-11-07T21:03:01.126Z,2.50
2018-11-07T21:05:31.714Z,3.10
2018-11-07T21:08:02.302Z,2.63
2018-11-07T21:10:32.748Z,3.10
2018-11-07T21:13:03.238Z,2.97
2018-11-07T21:15:33.676Z,3.10
2018-11-07T21:18:04.128Z,2.50
2018-11-07T21:20:35.025Z,3.80
2018-11-07T21:23:05.539Z,2.90
2018-11-07T21:25:35.999Z,3.37
2018-11-07T21:28:06.583Z,2.80
2018-11-07T21:30:37.059Z,3.30
2018-11-07T21:38:10.213Z,2.90
2018-11-07T21:40:40.703Z,3.20
2018-11-07T21:43:11.245Z,2.93
2018-11-07T21:45:41.683Z,3.30
2018-11-07T21:48:12.184Z,2.47
2018-11-07T21:50:42.606Z,3.17
2018-11-07T21:53:13.072Z,2.70
2018-11-07T21:55:43.781Z,2.47
2018-11-07T21:58:14.305Z,2.97
2018-11-07T22:00:44.810Z,2.70
2018-11-07T22:03:15.180Z,3.17
2018-11-07T22:05:45.612Z,3.30
2018-11-07T22:08:16.184Z,2.73
2018-11-07T22:10:46.640Z,3.37
2018-11-07T22:13:17.263Z,3.20
2018-11-07T22:15:48.152Z,3.27
2018-11-07T22:18:18.667Z,3.50
2018-11-07T22:20:49.231Z,3.07
2018-11-07T22:23:19.731Z,3.53
2018-11-07T22:25:50.160Z,3.13
2018-11-07T22:28:20.684Z,3.30
2018-11-07T22:30:51.269Z,3.10
2018-11-07T22:33:21.879Z,3.00
2018-11-07T22:35:52.648Z,3.00
2018-11-07T22:38:23.233Z,3.13
2018-11-07T22:40:53.763Z,3.43
2018-11-07T22:43:24.319Z,2.90
2018-11-07T22:45:54.954Z,3.10
2018-11-07T22:48:25.535Z,3.60
2018-11-07T22:50:56.058Z,3.37
2018-11-07T22:53:26.644Z,3.07
2018-11-07T22:55:57.203Z,3.20
2018-11-07T22:58:27.707Z,3.47
2018-11-07T23:01:03.144Z,3.27
2018-11-07T23:03:33.721Z,3.13
2018-11-07T23:06:04.280Z,3.53
2018-11-07T23:08:34.792Z,3.33
2018-11-07T23:11:05.394Z,4.10
2018-11-07T23:13:35.918Z,3.70
2018-11-07T23:16:06.648Z,3.73
2018-11-07T23:18:37.162Z,3.50
2018-11-07T23:21:08.041Z,4.10
2018-11-07T23:23:38.572Z,4.13
2018-11-07T23:26:09.061Z,4.23
2018-11-07T23:28:39.600Z,3.77
2018-11-07T23:31:10.108Z,3.63
2018-11-07T23:33:40.649Z,4.20
2018-11-07T23:36:11.464Z,3.30
2018-11-07T23:38:42.013Z,3.50
2018-11-07T23:41:12.560Z,3.60
2018-11-07T23:43:43.028Z,4.23
2018-11-07T23:46:13.501Z,3.97
2018-11-07T23:48:44.055Z,3.53
2018-11-07T23:51:14.585Z,4.30
2018-11-07T23:53:45.125Z,3.27
2018-11-07T23:56:16.694Z,4.30
2018-11-07T23:58:47.174Z,3.80
